createdAt,value
2023-04-10T00:02:06.432Z,1.66
2023-04-10T00:05:10.125Z,1.60
2023-04-10T00:08:12.074Z,1.62
2023-04-10T00:11:13.802Z,1.75
2023-04-10T00:14:15.693Z,1.69
2023-04-10T00:17:17.393Z,1.68
2023-04-10T00:20:20.657Z,1.62
2023-04-10T00:23:22.325Z,1.60
2023-04-10T00:26:24.055Z,1.66
2023-04-10T00:29:25.717Z,1.48
2023-04-10T00:32:27.727Z,1.63
2023-04-10T00:35:30.759Z,1.50
2023-04-10T00:38:32.676Z,1.54
2023-04-10T00:41:34.342Z,1.46
2023-04-10T00:44:36.024Z,1.35
2023-04-10T00:47:37.985Z,1.55
2023-04-10T00:50:41.075Z,1.51
2023-04-10T00:53:42.736Z,1.48
2023-04-10T00:56:45.204Z,1.39
2023-04-10T00:59:46.972Z,1.27
2023-04-10T01:02:49.176Z,1.14
2023-04-10T01:06:02.214Z,1.12
2023-04-10T01:09:10.389Z,1.23
2023-04-10T01:12:28.141Z,1.09
2023-04-10T01:15:37.427Z,1.22
2023-04-10T01:18:44.215Z,1.19
2023-04-10T01:21:48.764Z,1.18
2023-04-10T01:25:02.475Z,1.18
2023-04-10T01:28:24.794Z,1.10
2023-04-10T01:31:34.640Z,1.19
2023-04-10T01:34:41.073Z,1.21
2023-04-10T01:37:46.341Z,1.11
2023-04-10T01:40:52.335Z,1.11
2023-04-10T01:43:56.164Z,1.12
2023-04-10T01:47:00.954Z,1.03
2023-04-10T01:50:04.256Z,1.04
2023-04-10T01:53:07.361Z,1.03
2023-04-10T01:56:09.365Z,1.16
2023-04-10T01:59:11.845Z,1.21
2023-04-10T02:02:14.944Z,1.08
2023-04-10T02:05:17.227Z,1.02
2023-04-10T02:08:26.458Z,1.02
2023-04-10T02:11:37.696Z,0.93
2023-04-10T02:14:43.855Z,0.99
2023-04-10T02:17:48.971Z,1.06
2023-04-10T02:20:50.701Z,1.07
2023-04-10T02:23:52.832Z,0.99
2023-04-10T02:26:54.742Z,0.94
2023-04-10T02:29:56.884Z,1.05
2023-04-10T02:32:59.979Z,1.09
2023-04-10T02:36:01.772Z,1.07
2023-04-10T02:39:03.892Z,1.04
2023-04-10T02:42:05.587Z,1.00
2023-04-10T02:45:08.647Z,0.93
2023-04-10T02:48:11.703Z,0.94
2023-04-10T02:51:13.462Z,0.85
2023-04-10T02:54:15.167Z,0.89
2023-04-10T02:57:16.876Z,0.85
2023-04-10T03:00:18.715Z,0.88
2023-04-10T03:03:21.929Z,0.88
2023-04-10T03:06:23.735Z,0.83
2023-04-10T03:09:25.657Z,0.94
2023-04-10T03:12:27.328Z,1.01
2023-04-10T03:15:29.018Z,1.03
2023-04-10T03:18:32.062Z,1.03
2023-04-10T03:21:33.720Z,1.06
2023-04-10T03:24:35.398Z,0.94
2023-04-10T03:27:38.959Z,0.83
2023-04-10T03:30:40.868Z,1.04
2023-04-10T03:33:44.062Z,1.00
2023-04-10T03:36:45.850Z,0.93
2023-04-10T03:39:47.814Z,1.05
2023-04-10T03:42:49.444Z,1.08
2023-04-10T03:45:51.075Z,1.05
2023-04-10T03:48:54.293Z,1.19
2023-04-10T03:51:56.076Z,1.12
2023-04-10T03:54:58.190Z,1.33
2023-04-10T03:57:59.859Z,1.43
2023-04-10T04:01:01.920Z,1.49
2023-04-10T04:04:05.105Z,1.53
2023-04-10T04:07:06.897Z,1.71
2023-04-10T04:10:08.886Z,1.80
2023-04-10T04:13:10.897Z,1.94
2023-04-10T04:16:12.711Z,1.90
2023-04-10T04:19:15.833Z,2.01
2023-04-10T04:22:17.643Z,2.24
2023-04-10T04:25:19.689Z,2.29
2023-04-10T04:28:21.419Z,2.24
2023-04-10T04:31:23.072Z,2.16
2023-04-10T04:34:26.056Z,2.19
2023-04-10T04:37:27.661Z,2.09
2023-04-10T04:40:29.297Z,2.12
2023-04-10T04:43:30.955Z,2.27
2023-04-10T04:46:32.746Z,2.16
2023-04-10T04:49:35.851Z,2.16
2023-04-10T04:52:37.662Z,2.21
2023-04-10T04:55:39.367Z,2.12
2023-04-10T04:58:41.069Z,2.11
2023-04-10T05:01:42.817Z,2.22
2023-04-10T05:04:46.179Z,2.20
2023-04-10T05:07:48.067Z,2.35
2023-04-10T05:10:49.744Z,2.33
2023-04-10T05:13:51.463Z,2.53
2023-04-10T05:16:53.165Z,2.77
2023-04-10T05:19:56.150Z,2.74
2023-04-10T05:22:57.976Z,2.84
2023-04-10T05:25:59.876Z,2.86
2023-04-10T05:29:01.787Z,2.97
2023-04-10T05:32:03.699Z,3.19
2023-04-10T05:35:08.019Z,3.45
2023-04-10T05:38:10.197Z,3.75
2023-04-10T05:41:11.928Z,3.95
2023-04-10T05:44:13.616Z,4.08
2023-04-10T05:47:15.538Z,4.27
2023-04-10T05:50:18.588Z,4.49
2023-04-10T05:53:21.010Z,4.71
2023-04-10T05:56:22.999Z,5.04
2023-04-10T05:59:24.768Z,5.20
2023-04-10T06:02:26.650Z,5.37
2023-04-10T06:05:30.022Z,5.67
2023-04-10T06:08:31.812Z,5.85
2023-04-10T06:11:33.715Z,6.08
2023-04-10T06:14:35.693Z,6.42
2023-04-10T06:17:41.989Z,6.64
2023-04-10T06:20:45.256Z,6.76
2023-04-10T06:23:47.016Z,6.91
2023-04-10T06:26:48.653Z,7.16
2023-04-10T06:29:50.702Z,7.37
2023-04-10T06:32:53.185Z,7.49
2023-04-10T06:35:56.381Z,7.68
2023-04-10T06:38:58.113Z,7.99
2023-04-10T06:42:01.314Z,8.12
2023-04-10T06:45:04.131Z,8.28
2023-04-10T06:48:06.635Z,8.44
2023-04-10T06:51:09.727Z,8.59
2023-04-10T06:54:11.518Z,8.77
2023-04-10T06:57:13.236Z,8.91
2023-04-10T07:00:15.649Z,9.12
2023-04-10T07:03:17.892Z,9.32
2023-04-10T07:06:21.118Z,9.42
2023-04-10T07:09:23.164Z,9.56
2023-04-10T07:12:24.812Z,9.66
2023-04-10T07:15:26.433Z,9.67
2023-04-10T07:18:28.394Z,9.86
2023-04-10T07:21:31.680Z,9.98
2023-04-10T07:24:33.378Z,10.14
2023-04-10T07:27:35.312Z,10.39
2023-04-10T07:30:36.962Z,10.46
2023-04-10T07:33:38.926Z,10.61
2023-04-10T07:36:41.979Z,10.88
2023-04-10T07:39:43.723Z,11.13
2023-04-10T07:42:46.167Z,11.05
2023-04-10T07:45:48.022Z,11.27
2023-04-10T07:48:49.985Z,11.32
2023-04-10T07:51:53.311Z,11.35
2023-04-10T07:54:55.258Z,11.33
2023-04-10T07:57:56.919Z,11.44
2023-04-10T08:00:59.037Z,11.67
2023-04-10T08:04:02.098Z,11.87
2023-04-10T08:07:06.867Z,11.92
2023-04-10T08:10:09.787Z,12.05
2023-04-10T08:13:11.717Z,11.95
2023-04-10T08:16:13.581Z,12.01
2023-04-10T08:19:15.524Z,11.98
2023-04-10T08:22:18.523Z,12.11
2023-04-10T08:25:20.430Z,12.17
2023-04-10T08:28:22.412Z,12.30
2023-04-10T08:31:25.499Z,12.57
2023-04-10T08:34:27.207Z,12.64
2023-04-10T08:37:30.347Z,12.67
2023-04-10T08:40:32.036Z,12.78
2023-04-10T08:43:34.059Z,12.98
2023-04-10T08:46:37.052Z,13.02
2023-04-10T08:49:45.742Z,13.18
2023-04-10T08:52:52.024Z,13.18
2023-04-10T08:55:53.728Z,13.10
2023-04-10T08:58:55.752Z,13.17
2023-04-10T09:01:57.946Z,13.37
2023-04-10T09:05:02.839Z,13.51
2023-04-10T09:08:07.730Z,13.61
2023-04-10T09:11:09.390Z,13.80
2023-04-10T09:14:20.540Z,13.98
2023-04-10T09:17:23.611Z,14.14
2023-04-10T09:20:26.439Z,14.18
2023-04-10T09:23:29.484Z,14.15
2023-04-10T09:26:32.401Z,14.14
2023-04-10T09:29:42.509Z,13.98
2023-04-10T09:32:45.710Z,14.05
2023-04-10T09:35:47.437Z,14.20
2023-04-10T09:38:54.325Z,14.07
2023-04-10T09:41:55.973Z,14.32
2023-04-10T09:44:58.026Z,14.48
2023-04-10T09:48:05.252Z,14.73
2023-04-10T09:51:07.421Z,14.92
2023-04-10T09:54:10.448Z,15.06
2023-04-10T09:57:15.919Z,15.25
2023-04-10T10:00:17.917Z,15.25
2023-04-10T10:03:20.129Z,15.27
2023-04-10T10:06:22.753Z,15.15
2023-04-10T10:09:27.738Z,15.25
2023-04-10T10:12:35.667Z,15.18
2023-04-10T10:15:44.696Z,15.06
2023-04-10T10:18:54.890Z,14.84
2023-04-10T10:22:00.418Z,14.73
2023-04-10T10:25:04.892Z,14.60
2023-04-10T10:28:07.416Z,14.39
2023-04-10T10:31:10.233Z,14.18
2023-04-10T10:34:11.963Z,14.34
2023-04-10T10:37:14.158Z,14.58
2023-04-10T10:40:22.867Z,14.82
2023-04-10T10:43:31.587Z,15.02
2023-04-10T10:46:37.938Z,15.26
2023-04-10T10:49:55.575Z,15.49
2023-04-10T10:52:57.380Z,15.56
2023-04-10T10:56:34.481Z,15.05
2023-04-10T10:59:54.063Z,14.59
2023-04-10T11:03:28.420Z,14.05
2023-04-10T11:06:50.165Z,13.81
2023-04-10T11:09:53.104Z,13.72
2023-04-10T11:13:18.273Z,13.65
2023-04-10T11:16:20.929Z,13.54
2023-04-10T11:19:23.896Z,13.49
2023-04-10T11:22:26.175Z,13.49
2023-04-10T11:25:46.557Z,13.50
2023-04-10T11:28:49.757Z,13.45
2023-04-10T11:31:56.459Z,13.25
2023-04-10T11:34:58.362Z,13.09
2023-04-10T11:38:13.546Z,12.91
2023-04-10T11:41:15.214Z,12.91
2023-04-10T11:44:26.504Z,12.80
2023-04-10T11:47:28.312Z,12.75
2023-04-10T11:50:30.105Z,12.78
2023-04-10T11:53:31.809Z,12.71
2023-04-10T11:56:33.850Z,12.80
2023-04-10T11:59:36.991Z,12.79
2023-04-10T12:02:51.059Z,12.81
2023-04-10T12:05:52.835Z,12.75
2023-04-10T12:08:55.094Z,12.95
2023-04-10T12:11:59.871Z,13.03
2023-04-10T12:15:03.300Z,12.98
2023-04-10T12:18:05.027Z,13.23
2023-04-10T12:21:08.655Z,13.37
2023-04-10T12:24:11.000Z,13.58
2023-04-10T12:27:16.438Z,13.97
2023-04-10T12:30:20.038Z,14.11
2023-04-10T12:33:22.113Z,14.46
2023-04-10T12:36:24.898Z,14.05
2023-04-10T12:39:26.565Z,14.04
2023-04-10T12:42:28.274Z,14.06
2023-04-10T12:45:44.134Z,14.30
2023-04-10T12:48:45.823Z,14.21
2023-04-10T12:51:49.036Z,13.87
2023-04-10T12:54:50.677Z,13.74
2023-04-10T12:57:52.389Z,13.44
2023-04-10T13:00:55.615Z,13.01
2023-04-10T13:03:58.504Z,12.81
2023-04-10T13:07:00.194Z,12.86
2023-04-10T13:10:02.104Z,13.13
2023-04-10T13:13:04.472Z,13.14
2023-04-10T13:16:08.718Z,13.40
2023-04-10T13:19:10.416Z,13.54
2023-04-10T13:22:12.433Z,13.49
2023-04-10T13:25:14.119Z,13.65
2023-04-10T13:28:16.155Z,13.59
2023-04-10T13:31:19.289Z,13.69
2023-04-10T13:34:21.000Z,13.82
2023-04-10T13:37:22.706Z,14.17
2023-04-10T13:40:24.660Z,14.13
2023-04-10T13:43:26.556Z,14.23
2023-04-10T13:46:29.627Z,14.31
2023-04-10T13:49:31.631Z,14.64
2023-04-10T13:52:34.545Z,14.53
2023-04-10T13:55:36.267Z,14.52
2023-04-10T13:58:38.191Z,14.56
2023-04-10T14:01:41.384Z,14.31
2023-04-10T14:04:43.346Z,14.10
2023-04-10T14:07:45.060Z,14.07
2023-04-10T14:10:47.418Z,14.07
2023-04-10T14:13:49.168Z,13.96
2023-04-10T14:16:52.253Z,13.93
2023-04-10T14:19:53.979Z,14.14
2023-04-10T14:22:55.898Z,13.96
2023-04-10T14:25:57.596Z,13.82
2023-04-10T14:28:59.302Z,13.88
2023-04-10T14:32:02.345Z,13.95
2023-04-10T14:35:04.490Z,13.81
2023-04-10T14:38:06.486Z,13.74
2023-04-10T14:41:08.483Z,13.77
2023-04-10T14:44:10.192Z,13.83
2023-04-10T14:47:13.201Z,13.88
2023-04-10T14:50:14.809Z,13.90
2023-04-10T14:53:16.475Z,13.98
2023-04-10T14:56:18.120Z,13.88
2023-04-10T14:59:19.790Z,13.90
2023-04-10T15:02:23.228Z,13.93
2023-04-10T15:05:26.089Z,13.95
2023-04-10T15:08:28.048Z,14.02
2023-04-10T15:11:29.693Z,14.02
2023-04-10T15:14:31.359Z,14.00
2023-04-10T15:17:34.447Z,14.00
2023-04-10T15:20:36.093Z,14.17
2023-04-10T15:23:37.991Z,14.19
2023-04-10T15:26:43.446Z,14.18
2023-04-10T15:29:45.094Z,14.19
2023-04-10T15:32:48.507Z,14.18
2023-04-10T15:35:50.402Z,14.16
2023-04-10T15:38:52.565Z,14.10
2023-04-10T15:41:54.498Z,14.25
2023-04-10T15:44:56.106Z,14.36
2023-04-10T15:47:59.166Z,14.30
2023-04-10T15:51:04.035Z,14.33
2023-04-10T15:54:05.808Z,14.40
2023-04-10T15:57:07.474Z,14.53
2023-04-10T16:00:10.426Z,14.60
2023-04-10T16:03:13.861Z,14.51
2023-04-10T16:06:15.697Z,14.39
2023-04-10T16:09:25.418Z,14.46
2023-04-10T16:12:28.027Z,14.45
2023-04-10T16:15:30.173Z,14.43
2023-04-10T16:18:33.219Z,14.33
2023-04-10T16:21:35.159Z,14.34
2023-04-10T16:24:36.829Z,14.43
2023-04-10T16:27:38.659Z,14.49
2023-04-10T16:30:40.602Z,14.55
2023-04-10T16:33:43.837Z,14.50
2023-04-10T16:36:46.047Z,14.63
2023-04-10T16:39:48.020Z,14.58
2023-04-10T16:42:49.720Z,14.48
2023-04-10T16:45:54.858Z,14.47
2023-04-10T16:48:58.104Z,14.28
2023-04-10T16:51:59.902Z,14.17
2023-04-10T16:55:01.887Z,14.00
2023-04-10T16:58:03.917Z,13.90
2023-04-10T17:01:16.699Z,13.83
2023-04-10T17:04:19.966Z,13.56
2023-04-10T17:07:21.638Z,13.22
2023-04-10T17:10:23.420Z,12.94
2023-04-10T17:13:25.434Z,12.65
2023-04-10T17:16:27.518Z,12.37
2023-04-10T17:19:30.731Z,12.23
2023-04-10T17:22:32.689Z,12.10
2023-04-10T17:25:38.851Z,12.05
2023-04-10T17:28:41.716Z,11.80
2023-04-10T17:31:43.500Z,11.59
2023-04-10T17:34:46.983Z,11.47
2023-04-10T17:37:49.027Z,11.37
2023-04-10T17:40:51.114Z,11.28
2023-04-10T17:43:53.732Z,11.18
2023-04-10T17:46:55.855Z,11.10
2023-04-10T17:49:59.055Z,11.02
2023-04-10T17:53:01.468Z,10.93
2023-04-10T17:56:03.727Z,10.87
2023-04-10T17:59:05.666Z,10.81
2023-04-10T18:02:07.606Z,10.84
2023-04-10T18:05:11.116Z,10.81
2023-04-10T18:08:13.277Z,10.82
2023-04-10T18:11:15.498Z,10.79
2023-04-10T18:14:17.988Z,10.77
2023-04-10T18:17:20.246Z,10.80
2023-04-10T18:20:23.322Z,10.73
2023-04-10T18:23:25.414Z,10.73
2023-04-10T18:26:29.063Z,10.69
2023-04-10T18:29:30.870Z,10.69
2023-04-10T18:32:33.104Z,10.65
2023-04-10T18:35:36.164Z,10.60
2023-04-10T18:38:40.904Z,10.58
2023-04-10T18:41:42.987Z,10.56
2023-04-10T18:44:45.378Z,10.57
2023-04-10T18:47:47.285Z,10.53
2023-04-10T18:50:53.419Z,10.51
2023-04-10T18:53:56.265Z,10.50
2023-04-10T18:56:58.258Z,10.48
2023-04-10T19:00:00.462Z,10.47
2023-04-10T19:03:03.180Z,10.47
2023-04-10T19:06:07.375Z,10.46
2023-04-10T19:09:09.204Z,10.45
2023-04-10T19:12:12.311Z,10.45
2023-04-10T19:15:14.341Z,10.42
2023-04-10T19:18:16.672Z,10.46
2023-04-10T19:21:20.415Z,10.44
2023-04-10T19:24:22.154Z,10.36
2023-04-10T19:27:23.971Z,10.29
2023-04-10T19:30:26.098Z,10.26
2023-04-10T19:33:27.905Z,10.15
2023-04-10T19:36:30.988Z,10.07
2023-04-10T19:39:32.656Z,10.05
2023-04-10T19:42:34.448Z,10.04
2023-04-10T19:45:36.782Z,10.04
2023-04-10T19:48:38.882Z,10.04
2023-04-10T19:51:42.510Z,9.98
2023-04-10T19:54:44.270Z,9.98
2023-04-10T19:57:46.701Z,9.96
2023-04-10T20:00:48.841Z,9.95
2023-04-10T20:03:50.978Z,9.92
2023-04-10T20:06:54.465Z,9.94
2023-04-10T20:09:56.272Z,9.89
2023-04-10T20:12:58.222Z,9.98
2023-04-10T20:16:00.170Z,9.98
2023-04-10T20:19:01.904Z,9.89
2023-04-10T20:22:04.952Z,9.73
2023-04-10T20:25:07.893Z,9.80
2023-04-10T20:28:09.507Z,9.73
2023-04-10T20:31:12.664Z,9.77
2023-04-10T20:34:14.431Z,9.59
2023-04-10T20:37:17.566Z,9.43
2023-04-10T20:40:19.473Z,9.27
2023-04-10T20:43:21.587Z,9.19
2023-04-10T20:46:23.248Z,9.19
2023-04-10T20:49:25.023Z,9.14
2023-04-10T20:52:28.386Z,9.25
2023-04-10T20:55:30.116Z,9.22
2023-04-10T20:58:31.792Z,9.18
2023-04-10T21:01:34.554Z,9.17
2023-04-10T21:04:36.513Z,9.18
2023-04-10T21:07:39.681Z,9.21
2023-04-10T21:10:41.625Z,9.22
2023-04-10T21:13:43.536Z,9.26
2023-04-10T21:16:45.282Z,9.28
2023-04-10T21:19:47.235Z,9.25
2023-04-10T21:22:50.493Z,9.24
2023-04-10T21:25:52.236Z,9.22
2023-04-10T21:28:54.494Z,9.23
2023-04-10T21:31:56.726Z,9.19
2023-04-10T21:34:58.776Z,9.10
2023-04-10T21:38:02.488Z,9.07
2023-04-10T21:41:04.530Z,9.09
2023-04-10T21:44:06.629Z,9.05
2023-04-10T21:47:08.273Z,9.05
2023-04-10T21:50:10.551Z,9.09
2023-04-10T21:53:13.726Z,9.22
2023-04-10T21:56:15.479Z,9.26
2023-04-10T21:59:17.384Z,9.22
2023-04-10T22:02:19.427Z,9.28
2023-04-10T22:05:21.233Z,9.18
2023-04-10T22:08:24.332Z,9.13
2023-04-10T22:11:26.130Z,9.13
2023-04-10T22:14:28.320Z,9.15
2023-04-10T22:17:30.199Z,9.15
2023-04-10T22:20:31.926Z,9.14
2023-04-10T22:23:34.971Z,9.10
2023-04-10T22:26:36.690Z,9.09
2023-04-10T22:29:38.307Z,9.01
2023-04-10T22:32:40.062Z,8.96
2023-04-10T22:35:41.822Z,8.97
2023-04-10T22:38:44.870Z,8.90
2023-04-10T22:41:46.558Z,8.81
2023-04-10T22:44:48.235Z,8.70
2023-04-10T22:47:49.959Z,8.58
2023-04-10T22:50:51.620Z,8.50
2023-04-10T22:53:54.630Z,8.33
2023-04-10T22:56:57.020Z,8.24
2023-04-10T23:00:00.485Z,8.12
2023-04-10T23:03:02.360Z,8.01
2023-04-10T23:06:04.643Z,7.91
2023-04-10T23:09:07.690Z,7.79
2023-04-10T23:12:09.546Z,7.66
2023-04-10T23:15:11.366Z,7.56
2023-04-10T23:18:13.180Z,7.55
2023-04-10T23:21:14.898Z,7.40
2023-04-10T23:24:17.906Z,7.28
2023-04-10T23:27:19.498Z,7.17
2023-04-10T23:30:21.378Z,7.12
2023-04-10T23:33:23.236Z,6.95
2023-04-10T23:36:25.122Z,6.84
2023-04-10T23:39:28.485Z,6.74
2023-04-10T23:42:30.109Z,6.72
2023-04-10T23:45:31.994Z,6.71
2023-04-10T23:48:33.645Z,6.62
2023-04-10T23:51:37.581Z,6.61
2023-04-10T23:54:40.845Z,6.61
2023-04-10T23:57:42.775Z,6.58
